sensor_id;sensor_type;location;lat;lon;timestamp;temperature;humidity
17152;DHT22;8691;50.828;4.700;2022-08-05T00:01:43;20.60;99.90
17152;DHT22;8691;50.828;4.700;2022-08-05T00:04:10;20.60;99.90
17152;DHT22;8691;50.828;4.700;2022-08-05T00:06:37;20.60;99.90
17152;DHT22;8691;50.828;4.700;2022-08-05T00:09:04;20.60;99.90
17152;DHT22;8691;50.828;4.700;2022-08-05T00:11:31;20.60;99.90
17152;DHT22;8691;50.828;4.700;2022-08-05T00:13:59;20.60;99.90
17152;DHT22;8691;50.828;4.700;2022-08-05T00:16:26;20.50;99.90
17152;DHT22;8691;50.828;4.700;2022-08-05T00:18:53;20.70;99.90
17152;DHT22;8691;50.828;4.700;2022-08-05T00:21:19;20.70;99.90
17152;DHT22;8691;50.828;4.700;2022-08-05T00:23:46;20.70;99.90
17152;DHT22;8691;50.828;4.700;2022-08-05T00:26:14;20.70;99.90
17152;DHT22;8691;50.828;4.700;2022-08-05T00:28:41;20.70;99.90
17152;DHT22;8691;50.828;4.700;2022-08-05T00:31:08;20.70;99.90
17152;DHT22;8691;50.828;4.700;2022-08-05T00:33:35;20.70;99.90
17152;DHT22;8691;50.828;4.700;2022-08-05T00:36:02;20.60;99.90
17152;DHT22;8691;50.828;4.700;2022-08-05T00:38:29;20.60;99.90
17152;DHT22;8691;50.828;4.700;2022-08-05T00:40:56;20.70;99.90
17152;DHT22;8691;50.828;4.700;2022-08-05T00:43:22;20.70;99.90
17152;DHT22;8691;50.828;4.700;2022-08-05T00:45:49;20.70;99.90
17152;DHT22;8691;50.828;4.700;2022-08-05T00:48:19;20.70;99.90
17152;DHT22;8691;50.828;4.700;2022-08-05T00:50:46;20.70;99.90
17152;DHT22;8691;50.828;4.700;2022-08-05T00:53:17;20.50;99.90
17152;DHT22;8691;50.828;4.700;2022-08-05T00:55:42;20.40;99.90
17152;DHT22;8691;50.828;4.700;2022-08-05T00:58:10;20.40;99.90
17152;DHT22;8691;50.828;4.700;2022-08-05T01:00:37;20.40;99.90
17152;DHT22;8691;50.828;4.700;2022-08-05T01:03:04;20.40;99.90
17152;DHT22;8691;50.828;4.700;2022-08-05T01:05:31;20.30;99.90
17152;DHT22;8691;50.828;4.700;2022-08-05T01:07:58;20.20;99.90
17152;DHT22;8691;50.828;4.700;2022-08-05T01:10:26;20.10;99.90
17152;DHT22;8691;50.828;4.700;2022-08-05T01:12:54;20.10;99.90
17152;DHT22;8691;50.828;4.700;2022-08-05T01:15:23;20.10;99.90
17152;DHT22;8691;50.828;4.700;2022-08-05T01:17:49;20.00;99.90
17152;DHT22;8691;50.828;4.700;2022-08-05T01:25:42;19.80;99.90
17152;DHT22;8691;50.828;4.700;2022-08-05T01:30:33;19.50;99.90
17152;DHT22;8691;50.828;4.700;2022-08-05T01:32:59;19.50;99.90
17152;DHT22;8691;50.828;4.700;2022-08-05T01:35:27;19.40;99.90
17152;DHT22;8691;50.828;4.700;2022-08-05T01:37:54;19.40;99.90
17152;DHT22;8691;50.828;4.700;2022-08-05T01:40:22;19.50;99.90
17152;DHT22;8691;50.828;4.700;2022-08-05T01:42:47;19.70;99.90
17152;DHT22;8691;50.828;4.700;2022-08-05T01:45:14;19.60;99.90
17152;DHT22;8691;50.828;4.700;2022-08-05T01:47:41;19.70;99.90
17152;DHT22;8691;50.828;4.700;2022-08-05T01:50:09;19.70;99.90
17152;DHT22;8691;50.828;4.700;2022-08-05T01:52:35;19.70;99.90
17152;DHT22;8691;50.828;4.700;2022-08-05T01:55:03;19.70;99.90
17152;DHT22;8691;50.828;4.700;2022-08-05T01:57:32;19.70;99.90
17152;DHT22;8691;50.828;4.700;2022-08-05T01:59:59;19.70;99.90
17152;DHT22;8691;50.828;4.700;2022-08-05T02:02:26;19.70;99.90
17152;DHT22;8691;50.828;4.700;2022-08-05T02:04:52;19.70;99.90
17152;DHT22;8691;50.828;4.700;2022-08-05T02:07:19;19.70;99.90
17152;DHT22;8691;50.828;4.700;2022-08-05T02:09:45;19.60;99.90
17152;DHT22;8691;50.828;4.700;2022-08-05T02:12:32;19.60;99.90
17152;DHT22;8691;50.828;4.700;2022-08-05T02:17:32;19.60;99.90
17152;DHT22;8691;50.828;4.700;2022-08-05T02:19:59;19.70;99.90
17152;DHT22;8691;50.828;4.700;2022-08-05T02:22:29;19.80;99.90
17152;DHT22;8691;50.828;4.700;2022-08-05T02:25:00;19.80;99.90
17152;DHT22;8691;50.828;4.700;2022-08-05T02:27:24;19.80;99.90
17152;DHT22;8691;50.828;4.700;2022-08-05T02:29:50;19.90;99.90
17152;DHT22;8691;50.828;4.700;2022-08-05T02:32:18;20.00;99.90
17152;DHT22;8691;50.828;4.700;2022-08-05T02:34:44;20.00;99.90
17152;DHT22;8691;50.828;4.700;2022-08-05T02:37:11;20.00;99.90
17152;DHT22;8691;50.828;4.700;2022-08-05T02:39:38;20.10;99.90
17152;DHT22;8691;50.828;4.700;2022-08-05T02:42:05;20.10;99.90
17152;DHT22;8691;50.828;4.700;2022-08-05T02:44:32;20.00;99.90
17152;DHT22;8691;50.828;4.700;2022-08-05T02:46:58;19.90;99.90
17152;DHT22;8691;50.828;4.700;2022-08-05T02:49:26;20.00;99.90
17152;DHT22;8691;50.828;4.700;2022-08-05T02:51:52;20.00;99.90
17152;DHT22;8691;50.828;4.700;2022-08-05T02:54:19;20.00;99.90
17152;DHT22;8691;50.828;4.700;2022-08-05T02:56:46;20.00;99.90
17152;DHT22;8691;50.828;4.700;2022-08-05T02:59:12;20.00;99.90
17152;DHT22;8691;50.828;4.700;2022-08-05T03:01:39;19.80;99.90
17152;DHT22;8691;50.828;4.700;2022-08-05T03:04:07;19.80;99.90
17152;DHT22;8691;50.828;4.700;2022-08-05T03:06:33;19.90;99.90
17152;DHT22;8691;50.828;4.700;2022-08-05T03:09:00;19.80;99.90
17152;DHT22;8691;50.828;4.700;2022-08-05T03:11:27;19.80;99.90
17152;DHT22;8691;50.828;4.700;2022-08-05T03:13:55;19.60;99.90
17152;DHT22;8691;50.828;4.700;2022-08-05T03:16:22;19.70;99.90
17152;DHT22;8691;50.828;4.700;2022-08-05T03:18:49;19.60;99.90
17152;DHT22;8691;50.828;4.700;2022-08-05T03:21:16;19.70;99.90
17152;DHT22;8691;50.828;4.700;2022-08-05T03:23:43;19.70;99.90
17152;DHT22;8691;50.828;4.700;2022-08-05T03:26:10;19.60;99.90
17152;DHT22;8691;50.828;4.700;2022-08-05T03:28:38;19.60;99.90
17152;DHT22;8691;50.828;4.700;2022-08-05T03:31:05;19.60;99.90
17152;DHT22;8691;50.828;4.700;2022-08-05T03:33:32;19.60;99.90
17152;DHT22;8691;50.828;4.700;2022-08-05T03:36:00;19.40;99.90
17152;DHT22;8691;50.828;4.700;2022-08-05T03:38:26;19.40;99.90
17152;DHT22;8691;50.828;4.700;2022-08-05T03:40:54;19.40;99.90
17152;DHT22;8691;50.828;4.700;2022-08-05T03:43:20;19.40;99.90
17152;DHT22;8691;50.828;4.700;2022-08-05T03:45:47;19.30;99.90
17152;DHT22;8691;50.828;4.700;2022-08-05T03:48:14;19.30;99.90
17152;DHT22;8691;50.828;4.700;2022-08-05T03:51:02;19.40;99.90
17152;DHT22;8691;50.828;4.700;2022-08-05T03:53:36;19.40;99.90
17152;DHT22;8691;50.828;4.700;2022-08-05T03:58:34;19.30;99.90
17152;DHT22;8691;50.828;4.700;2022-08-05T04:01:01;19.30;99.90
17152;DHT22;8691;50.828;4.700;2022-08-05T04:03:29;19.20;99.90
17152;DHT22;8691;50.828;4.700;2022-08-05T04:05:56;19.30;99.90
17152;DHT22;8691;50.828;4.700;2022-08-05T04:08:23;19.20;99.90
17152;DHT22;8691;50.828;4.700;2022-08-05T04:10:49;19.20;99.90
17152;DHT22;8691;50.828;4.700;2022-08-05T04:13:17;19.00;99.90
17152;DHT22;8691;50.828;4.700;2022-08-05T04:15:45;19.00;99.90
17152;DHT22;8691;50.828;4.700;2022-08-05T04:18:11;19.10;99.90
17152;DHT22;8691;50.828;4.700;2022-08-05T04:20:38;19.10;99.90
17152;DHT22;8691;50.828;4.700;2022-08-05T04:23:06;19.10;99.90
17152;DHT22;8691;50.828;4.700;2022-08-05T04:25:33;19.10;99.90
17152;DHT22;8691;50.828;4.700;2022-08-05T04:27:59;19.10;99.90
17152;DHT22;8691;50.828;4.700;2022-08-05T04:30:26;19.10;99.90
17152;DHT22;8691;50.828;4.700;2022-08-05T04:32:53;19.20;99.90
17152;DHT22;8691;50.828;4.700;2022-08-05T04:35:21;19.00;99.90
17152;DHT22;8691;50.828;4.700;2022-08-05T04:37:47;19.00;99.90
17152;DHT22;8691;50.828;4.700;2022-08-05T04:40:14;19.00;99.90
17152;DHT22;8691;50.828;4.700;2022-08-05T04:42:41;19.10;99.90
17152;DHT22;8691;50.828;4.700;2022-08-05T04:45:08;19.00;99.90
17152;DHT22;8691;50.828;4.700;2022-08-05T04:47:35;19.00;99.90
17152;DHT22;8691;50.828;4.700;2022-08-05T04:50:02;19.10;99.90
17152;DHT22;8691;50.828;4.700;2022-08-05T04:52:29;19.10;99.90
17152;DHT22;8691;50.828;4.700;2022-08-05T04:54:56;19.10;99.90
17152;DHT22;8691;50.828;4.700;2022-08-05T04:57:25;19.00;99.90
17152;DHT22;8691;50.828;4.700;2022-08-05T04:59:52;19.10;99.90
17152;DHT22;8691;50.828;4.700;2022-08-05T05:02:19;19.10;99.90
17152;DHT22;8691;50.828;4.700;2022-08-05T05:04:45;19.10;99.90
17152;DHT22;8691;50.828;4.700;2022-08-05T05:07:12;19.20;99.90
17152;DHT22;8691;50.828;4.700;2022-08-05T05:09:40;19.30;99.90
17152;DHT22;8691;50.828;4.700;2022-08-05T05:12:06;19.30;99.90
17152;DHT22;8691;50.828;4.700;2022-08-05T05:14:33;19.30;99.90
17152;DHT22;8691;50.828;4.700;2022-08-05T05:17:00;19.20;99.90
17152;DHT22;8691;50.828;4.700;2022-08-05T05:19:27;19.30;99.90
17152;DHT22;8691;50.828;4.700;2022-08-05T05:21:54;19.30;99.90
17152;DHT22;8691;50.828;4.700;2022-08-05T05:24:21;19.30;99.90
17152;DHT22;8691;50.828;4.700;2022-08-05T05:26:48;19.30;99.90
17152;DHT22;8691;50.828;4.700;2022-08-05T05:29:14;19.30;99.90
17152;DHT22;8691;50.828;4.700;2022-08-05T05:31:41;19.40;99.90
17152;DHT22;8691;50.828;4.700;2022-08-05T05:34:08;19.40;99.90
17152;DHT22;8691;50.828;4.700;2022-08-05T05:36:35;19.40;99.90
17152;DHT22;8691;50.828;4.700;2022-08-05T05:39:02;19.20;99.90
17152;DHT22;8691;50.828;4.700;2022-08-05T05:41:30;19.30;99.90
17152;DHT22;8691;50.828;4.700;2022-08-05T05:43:57;19.30;99.90
17152;DHT22;8691;50.828;4.700;2022-08-05T05:46:24;19.40;99.90
17152;DHT22;8691;50.828;4.700;2022-08-05T05:48:51;19.40;99.90
17152;DHT22;8691;50.828;4.700;2022-08-05T05:51:21;19.50;99.90
17152;DHT22;8691;50.828;4.700;2022-08-05T05:53:45;19.50;99.90
17152;DHT22;8691;50.828;4.700;2022-08-05T05:56:12;19.60;99.90
17152;DHT22;8691;50.828;4.700;2022-08-05T05:58:38;19.80;99.90
17152;DHT22;8691;50.828;4.700;2022-08-05T06:01:05;19.80;99.90
17152;DHT22;8691;50.828;4.700;2022-08-05T06:03:32;19.80;99.90
17152;DHT22;8691;50.828;4.700;2022-08-05T06:05:59;19.70;99.90
17152;DHT22;8691;50.828;4.700;2022-08-05T06:08:25;19.80;99.90
17152;DHT22;8691;50.828;4.700;2022-08-05T06:10:52;19.90;99.90
17152;DHT22;8691;50.828;4.700;2022-08-05T06:13:19;20.00;99.90
17152;DHT22;8691;50.828;4.700;2022-08-05T06:15:46;20.10;99.90
17152;DHT22;8691;50.828;4.700;2022-08-05T06:18:13;20.00;99.90
17152;DHT22;8691;50.828;4.700;2022-08-05T06:20:40;20.00;99.90
17152;DHT22;8691;50.828;4.700;2022-08-05T06:23:07;20.20;99.90
17152;DHT22;8691;50.828;4.700;2022-08-05T06:25:35;20.70;99.90
17152;DHT22;8691;50.828;4.700;2022-08-05T06:28:02;20.70;99.90
17152;DHT22;8691;50.828;4.700;2022-08-05T06:30:29;20.80;99.90
17152;DHT22;8691;50.828;4.700;2022-08-05T06:32:56;20.80;99.90
17152;DHT22;8691;50.828;4.700;2022-08-05T06:35:23;20.90;99.90
17152;DHT22;8691;50.828;4.700;2022-08-05T06:37:50;20.90;99.90
17152;DHT22;8691;50.828;4.700;2022-08-05T06:40:18;20.80;99.90
17152;DHT22;8691;50.828;4.700;2022-08-05T06:42:45;20.80;99.90
17152;DHT22;8691;50.828;4.700;2022-08-05T06:45:13;20.80;99.90
17152;DHT22;8691;50.828;4.700;2022-08-05T06:47:40;20.90;99.90
17152;DHT22;8691;50.828;4.700;2022-08-05T06:50:08;20.90;99.90
17152;DHT22;8691;50.828;4.700;2022-08-05T06:52:35;21.00;99.90
17152;DHT22;8691;50.828;4.700;2022-08-05T06:55:01;21.00;99.90
17152;DHT22;8691;50.828;4.700;2022-08-05T06:57:28;21.00;99.90
17152;DHT22;8691;50.828;4.700;2022-08-05T06:59:55;21.00;99.90
17152;DHT22;8691;50.828;4.700;2022-08-05T07:02:22;20.90;99.90
17152;DHT22;8691;50.828;4.700;2022-08-05T07:04:49;20.90;99.90
17152;DHT22;8691;50.828;4.700;2022-08-05T07:07:15;20.90;99.90
17152;DHT22;8691;50.828;4.700;2022-08-05T07:09:42;21.00;99.90
17152;DHT22;8691;50.828;4.700;2022-08-05T07:12:09;21.10;99.90
17152;DHT22;8691;50.828;4.700;2022-08-05T07:14:37;21.30;99.90
17152;DHT22;8691;50.828;4.700;2022-08-05T07:17:22;21.30;99.90
17152;DHT22;8691;50.828;4.700;2022-08-05T07:19:49;21.50;99.90
17152;DHT22;8691;50.828;4.700;2022-08-05T07:22:15;21.80;99.90
17152;DHT22;8691;50.828;4.700;2022-08-05T07:24:42;22.20;99.90
17152;DHT22;8691;50.828;4.700;2022-08-05T07:27:09;22.50;99.90
17152;DHT22;8691;50.828;4.700;2022-08-05T07:29:36;22.60;99.90
17152;DHT22;8691;50.828;4.700;2022-08-05T07:32:03;22.10;99.90
17152;DHT22;8691;50.828;4.700;2022-08-05T07:34:29;22.10;99.90
17152;DHT22;8691;50.828;4.700;2022-08-05T07:36:56;22.10;99.90
17152;DHT22;8691;50.828;4.700;2022-08-05T07:39:23;22.60;99.90
17152;DHT22;8691;50.828;4.700;2022-08-05T07:41:49;23.50;99.90
17152;DHT22;8691;50.828;4.700;2022-08-05T07:44:16;23.80;99.90
17152;DHT22;8691;50.828;4.700;2022-08-05T07:46:43;24.50;99.90
17152;DHT22;8691;50.828;4.700;2022-08-05T07:49:10;25.10;99.90
17152;DHT22;8691;50.828;4.700;2022-08-05T07:51:37;25.70;99.90
17152;DHT22;8691;50.828;4.700;2022-08-05T07:54:04;26.40;99.90
17152;DHT22;8691;50.828;4.700;2022-08-05T07:56:30;27.70;99.90
17152;DHT22;8691;50.828;4.700;2022-08-05T07:58:57;28.00;99.90
17152;DHT22;8691;50.828;4.700;2022-08-05T08:01:24;28.80;98.60
17152;DHT22;8691;50.828;4.700;2022-08-05T08:03:51;28.90;97.20
17152;DHT22;8691;50.828;4.700;2022-08-05T08:06:18;29.20;96.80
17152;DHT22;8691;50.828;4.700;2022-08-05T08:08:45;28.90;96.30
17152;DHT22;8691;50.828;4.700;2022-08-05T08:11:12;28.30;97.20
17152;DHT22;8691;50.828;4.700;2022-08-05T08:13:39;27.10;98.40
17152;DHT22;8691;50.828;4.700;2022-08-05T08:16:05;26.00;99.90
17152;DHT22;8691;50.828;4.700;2022-08-05T08:18:32;25.40;99.90
17152;DHT22;8691;50.828;4.700;2022-08-05T08:20:59;25.00;99.90
17152;DHT22;8691;50.828;4.700;2022-08-05T08:23:26;24.60;99.90
17152;DHT22;8691;50.828;4.700;2022-08-05T08:25:53;24.40;99.90
17152;DHT22;8691;50.828;4.700;2022-08-05T08:28:20;24.20;99.90
17152;DHT22;8691;50.828;4.700;2022-08-05T08:30:46;24.00;99.90
17152;DHT22;8691;50.828;4.700;2022-08-05T08:33:13;23.90;99.90
17152;DHT22;8691;50.828;4.700;2022-08-05T08:35:41;24.30;99.90
17152;DHT22;8691;50.828;4.700;2022-08-05T08:38:08;24.30;99.90
17152;DHT22;8691;50.828;4.700;2022-08-05T08:40:35;24.40;99.90
17152;DHT22;8691;50.828;4.700;2022-08-05T08:43:02;24.50;99.90
17152;DHT22;8691;50.828;4.700;2022-08-05T08:45:29;24.50;99.90
17152;DHT22;8691;50.828;4.700;2022-08-05T08:47:56;24.60;99.90
17152;DHT22;8691;50.828;4.700;2022-08-05T08:50:22;24.50;99.90
17152;DHT22;8691;50.828;4.700;2022-08-05T08:52:51;24.30;99.90
17152;DHT22;8691;50.828;4.700;2022-08-05T08:55:17;25.50;99.90
17152;DHT22;8691;50.828;4.700;2022-08-05T08:57:44;25.50;99.90
17152;DHT22;8691;50.828;4.700;2022-08-05T09:00:11;27.10;98.70
17152;DHT22;8691;50.828;4.700;2022-08-05T09:02:38;27.10;98.70
17152;DHT22;8691;50.828;4.700;2022-08-05T09:05:05;27.20;98.50
17152;DHT22;8691;50.828;4.700;2022-08-05T09:07:32;27.50;98.00
17152;DHT22;8691;50.828;4.700;2022-08-05T09:09:59;27.50;98.30
17152;DHT22;8691;50.828;4.700;2022-08-05T09:12:26;27.00;98.80
17152;DHT22;8691;50.828;4.700;2022-08-05T09:14:53;26.60;99.20
17152;DHT22;8691;50.828;4.700;2022-08-05T09:17:20;26.20;99.80
17152;DHT22;8691;50.828;4.700;2022-08-05T09:19:47;26.10;99.90
17152;DHT22;8691;50.828;4.700;2022-08-05T09:22:13;26.30;99.70
17152;DHT22;8691;50.828;4.700;2022-08-05T09:24:40;26.40;99.90
17152;DHT22;8691;50.828;4.700;2022-08-05T09:27:08;29.20;95.40
17152;DHT22;8691;50.828;4.700;2022-08-05T09:29:42;29.20;95.40
17152;DHT22;8691;50.828;4.700;2022-08-05T09:32:08;30.90;91.70
17152;DHT22;8691;50.828;4.700;2022-08-05T09:34:51;32.30;87.30
17152;DHT22;8691;50.828;4.700;2022-08-05T09:37:20;32.90;82.00
17152;DHT22;8691;50.828;4.700;2022-08-05T09:39:44;31.50;82.80
17152;DHT22;8691;50.828;4.700;2022-08-05T09:42:11;30.40;88.20
17152;DHT22;8691;50.828;4.700;2022-08-05T09:44:47;31.20;87.50
17152;DHT22;8691;50.828;4.700;2022-08-05T09:49:38;32.20;82.00
17152;DHT22;8691;50.828;4.700;2022-08-05T09:52:15;32.20;80.20
17152;DHT22;8691;50.828;4.700;2022-08-05T09:54:29;31.20;82.50
17152;DHT22;8691;50.828;4.700;2022-08-05T09:56:56;30.10;84.10
17152;DHT22;8691;50.828;4.700;2022-08-05T09:59:22;29.50;88.50
17152;DHT22;8691;50.828;4.700;2022-08-05T10:01:49;29.90;85.60
17152;DHT22;8691;50.828;4.700;2022-08-05T10:04:17;31.00;80.60
17152;DHT22;8691;50.828;4.700;2022-08-05T10:06:55;30.20;83.00
17152;DHT22;8691;50.828;4.700;2022-08-05T10:09:21;30.20;83.10
17152;DHT22;8691;50.828;4.700;2022-08-05T10:11:47;29.10;85.60
17152;DHT22;8691;50.828;4.700;2022-08-05T10:14:24;29.00;89.20
17152;DHT22;8691;50.828;4.700;2022-08-05T10:16:50;29.60;86.30
17152;DHT22;8691;50.828;4.700;2022-08-05T10:19:17;30.00;86.80
17152;DHT22;8691;50.828;4.700;2022-08-05T10:21:44;31.20;83.60
17152;DHT22;8691;50.828;4.700;2022-08-05T10:24:15;30.30;83.00
17152;DHT22;8691;50.828;4.700;2022-08-05T10:26:41;30.20;83.00
17152;DHT22;8691;50.828;4.700;2022-08-05T10:29:08;28.80;88.30
17152;DHT22;8691;50.828;4.700;2022-08-05T10:31:35;27.80;91.20
17152;DHT22;8691;50.828;4.700;2022-08-05T10:34:01;28.20;90.60
17152;DHT22;8691;50.828;4.700;2022-08-05T10:36:28;29.60;84.30
17152;DHT22;8691;50.828;4.700;2022-08-05T10:38:58;31.00;79.00
17152;DHT22;8691;50.828;4.700;2022-08-05T10:41:27;31.20;76.60
17152;DHT22;8691;50.828;4.700;2022-08-05T10:44:19;31.80;74.50
17152;DHT22;8691;50.828;4.700;2022-08-05T10:46:46;30.60;76.00
17152;DHT22;8691;50.828;4.700;2022-08-05T10:49:13;29.30;81.00
17152;DHT22;8691;50.828;4.700;2022-08-05T10:51:50;28.10;82.40
17152;DHT22;8691;50.828;4.700;2022-08-05T10:54:16;27.30;83.00
17152;DHT22;8691;50.828;4.700;2022-08-05T10:59:16;27.70;82.00
17152;DHT22;8691;50.828;4.700;2022-08-05T11:01:44;28.60;80.70
17152;DHT22;8691;50.828;4.700;2022-08-05T11:04:14;28.50;80.60
17152;DHT22;8691;50.828;4.700;2022-08-05T11:09:22;28.70;81.30
17152;DHT22;8691;50.828;4.700;2022-08-05T11:11:50;27.40;82.70
17152;DHT22;8691;50.828;4.700;2022-08-05T11:14:29;27.40;82.70
17152;DHT22;8691;50.828;4.700;2022-08-05T11:19:53;26.60;88.80
17152;DHT22;8691;50.828;4.700;2022-08-05T11:22:41;27.00;87.60
17152;DHT22;8691;50.828;4.700;2022-08-05T11:25:26;27.10;85.20
17152;DHT22;8691;50.828;4.700;2022-08-05T11:27:54;27.40;82.80
17152;DHT22;8691;50.828;4.700;2022-08-05T11:30:21;27.40;81.90
17152;DHT22;8691;50.828;4.700;2022-08-05T11:32:48;27.40;81.90
17152;DHT22;8691;50.828;4.700;2022-08-05T11:38:28;28.00;80.80
17152;DHT22;8691;50.828;4.700;2022-08-05T11:40:56;28.20;79.80
17152;DHT22;8691;50.828;4.700;2022-08-05T11:43:22;28.10;79.80
17152;DHT22;8691;50.828;4.700;2022-08-05T11:45:49;28.20;79.40
17152;DHT22;8691;50.828;4.700;2022-08-05T11:48:16;28.10;76.40
17152;DHT22;8691;50.828;4.700;2022-08-05T11:50:43;28.20;77.80
17152;DHT22;8691;50.828;4.700;2022-08-05T11:53:10;28.10;76.80
17152;DHT22;8691;50.828;4.700;2022-08-05T11:55:37;28.00;75.90
17152;DHT22;8691;50.828;4.700;2022-08-05T11:58:04;27.70;77.30
17152;DHT22;8691;50.828;4.700;2022-08-05T12:00:30;27.60;78.50
17152;DHT22;8691;50.828;4.700;2022-08-05T12:03:13;27.60;74.00
17152;DHT22;8691;50.828;4.700;2022-08-05T12:05:25;27.30;75.40
17152;DHT22;8691;50.828;4.700;2022-08-05T12:07:55;27.50;76.30
17152;DHT22;8691;50.828;4.700;2022-08-05T12:10:20;27.70;75.70
17152;DHT22;8691;50.828;4.700;2022-08-05T12:12:47;27.70;75.70
17152;DHT22;8691;50.828;4.700;2022-08-05T12:15:18;28.00;75.70
17152;DHT22;8691;50.828;4.700;2022-08-05T12:17:45;28.00;73.50
17152;DHT22;8691;50.828;4.700;2022-08-05T12:20:12;28.00;73.40
17152;DHT22;8691;50.828;4.700;2022-08-05T12:22:39;27.80;75.10
17152;DHT22;8691;50.828;4.700;2022-08-05T12:25:06;27.90;74.50
17152;DHT22;8691;50.828;4.700;2022-08-05T12:27:33;28.00;73.80
17152;DHT22;8691;50.828;4.700;2022-08-05T12:30:09;28.20;74.60
17152;DHT22;8691;50.828;4.700;2022-08-05T12:32:45;28.00;76.20
17152;DHT22;8691;50.828;4.700;2022-08-05T12:35:02;27.90;75.50
17152;DHT22;8691;50.828;4.700;2022-08-05T12:37:29;27.50;77.30
17152;DHT22;8691;50.828;4.700;2022-08-05T12:39:56;27.50;77.60
17152;DHT22;8691;50.828;4.700;2022-08-05T12:42:22;27.80;76.00
17152;DHT22;8691;50.828;4.700;2022-08-05T12:44:49;28.00;75.70
17152;DHT22;8691;50.828;4.700;2022-08-05T12:47:28;27.80;75.40
17152;DHT22;8691;50.828;4.700;2022-08-05T12:49:55;27.60;77.20
17152;DHT22;8691;50.828;4.700;2022-08-05T12:52:21;27.20;76.60
17152;DHT22;8691;50.828;4.700;2022-08-05T12:54:49;27.10;77.90
17152;DHT22;8691;50.828;4.700;2022-08-05T12:57:15;27.40;77.30
17152;DHT22;8691;50.828;4.700;2022-08-05T13:02:18;27.20;77.40
17152;DHT22;8691;50.828;4.700;2022-08-05T13:04:43;27.90;77.00
17152;DHT22;8691;50.828;4.700;2022-08-05T13:07:10;27.80;76.90
17152;DHT22;8691;50.828;4.700;2022-08-05T13:09:40;27.10;75.70
17152;DHT22;8691;50.828;4.700;2022-08-05T13:12:12;27.10;75.70
17152;DHT22;8691;50.828;4.700;2022-08-05T13:14:40;26.60;77.00
17152;DHT22;8691;50.828;4.700;2022-08-05T13:19:56;26.60;77.90
17152;DHT22;8691;50.828;4.700;2022-08-05T13:22:09;26.60;77.80
17152;DHT22;8691;50.828;4.700;2022-08-05T13:24:36;26.60;78.00
17152;DHT22;8691;50.828;4.700;2022-08-05T13:27:03;26.90;77.30
17152;DHT22;8691;50.828;4.700;2022-08-05T13:29:30;26.80;77.30
17152;DHT22;8691;50.828;4.700;2022-08-05T13:31:57;27.10;74.60
17152;DHT22;8691;50.828;4.700;2022-08-05T13:34:25;26.60;74.90
17152;DHT22;8691;50.828;4.700;2022-08-05T13:36:52;26.60;74.90
17152;DHT22;8691;50.828;4.700;2022-08-05T13:39:18;26.90;73.00
17152;DHT22;8691;50.828;4.700;2022-08-05T13:41:45;26.90;74.50
17152;DHT22;8691;50.828;4.700;2022-08-05T13:44:12;27.00;73.80
17152;DHT22;8691;50.828;4.700;2022-08-05T13:46:40;26.50;72.80
17152;DHT22;8691;50.828;4.700;2022-08-05T13:49:07;26.40;74.10
17152;DHT22;8691;50.828;4.700;2022-08-05T13:51:34;26.40;74.10
17152;DHT22;8691;50.828;4.700;2022-08-05T13:54:01;26.40;74.10
17152;DHT22;8691;50.828;4.700;2022-08-05T13:56:28;26.40;73.10
17152;DHT22;8691;50.828;4.700;2022-08-05T13:58:55;26.20;73.80
17152;DHT22;8691;50.828;4.700;2022-08-05T14:01:22;26.30;73.30
17152;DHT22;8691;50.828;4.700;2022-08-05T14:03:49;26.20;73.40
17152;DHT22;8691;50.828;4.700;2022-08-05T14:06:16;26.20;73.30
17152;DHT22;8691;50.828;4.700;2022-08-05T14:08:42;26.30;71.80
17152;DHT22;8691;50.828;4.700;2022-08-05T14:11:09;26.60;71.60
17152;DHT22;8691;50.828;4.700;2022-08-05T14:13:36;26.90;71.00
17152;DHT22;8691;50.828;4.700;2022-08-05T14:16:03;27.10;69.20
17152;DHT22;8691;50.828;4.700;2022-08-05T14:18:30;27.20;70.50
17152;DHT22;8691;50.828;4.700;2022-08-05T14:20:57;27.10;70.90
17152;DHT22;8691;50.828;4.700;2022-08-05T14:23:24;26.80;71.90
17152;DHT22;8691;50.828;4.700;2022-08-05T14:25:51;26.50;71.80
17152;DHT22;8691;50.828;4.700;2022-08-05T14:28:18;26.50;71.80
17152;DHT22;8691;50.828;4.700;2022-08-05T14:30:45;26.10;72.20
17152;DHT22;8691;50.828;4.700;2022-08-05T14:33:12;26.00;73.60
17152;DHT22;8691;50.828;4.700;2022-08-05T14:35:38;25.70;73.90
17152;DHT22;8691;50.828;4.700;2022-08-05T14:38:05;25.70;73.90
17152;DHT22;8691;50.828;4.700;2022-08-05T14:40:32;25.90;73.50
17152;DHT22;8691;50.828;4.700;2022-08-05T14:43:00;26.10;73.00
17152;DHT22;8691;50.828;4.700;2022-08-05T14:45:27;26.10;73.00
17152;DHT22;8691;50.828;4.700;2022-08-05T14:47:54;26.00;72.80
17152;DHT22;8691;50.828;4.700;2022-08-05T14:50:20;25.70;74.00
17152;DHT22;8691;50.828;4.700;2022-08-05T14:52:47;25.50;74.60
17152;DHT22;8691;50.828;4.700;2022-08-05T14:55:14;25.40;76.20
17152;DHT22;8691;50.828;4.700;2022-08-05T14:57:41;25.80;74.00
17152;DHT22;8691;50.828;4.700;2022-08-05T15:00:08;25.70;74.30
17152;DHT22;8691;50.828;4.700;2022-08-05T15:02:35;25.90;74.50
17152;DHT22;8691;50.828;4.700;2022-08-05T15:05:02;25.90;72.20
17152;DHT22;8691;50.828;4.700;2022-08-05T15:07:28;25.80;73.60
17152;DHT22;8691;50.828;4.700;2022-08-05T15:09:55;25.70;74.20
17152;DHT22;8691;50.828;4.700;2022-08-05T15:12:22;25.60;74.10
17152;DHT22;8691;50.828;4.700;2022-08-05T15:14:49;25.30;74.60
17152;DHT22;8691;50.828;4.700;2022-08-05T15:17:19;25.20;74.90
17152;DHT22;8691;50.828;4.700;2022-08-05T15:19:45;25.20;75.00
17152;DHT22;8691;50.828;4.700;2022-08-05T15:22:13;25.30;75.20
17152;DHT22;8691;50.828;4.700;2022-08-05T15:24:40;25.30;74.30
17152;DHT22;8691;50.828;4.700;2022-08-05T15:27:07;25.00;75.50
17152;DHT22;8691;50.828;4.700;2022-08-05T15:29:34;25.00;75.50
17152;DHT22;8691;50.828;4.700;2022-08-05T15:32:01;25.00;74.60
17152;DHT22;8691;50.828;4.700;2022-08-05T15:34:28;25.10;72.70
17152;DHT22;8691;50.828;4.700;2022-08-05T15:36:55;24.90;73.30
17152;DHT22;8691;50.828;4.700;2022-08-05T15:39:21;25.00;73.40
17152;DHT22;8691;50.828;4.700;2022-08-05T15:41:48;25.00;73.90
17152;DHT22;8691;50.828;4.700;2022-08-05T15:44:16;25.20;73.10
17152;DHT22;8691;50.828;4.700;2022-08-05T15:46:44;25.40;71.00
17152;DHT22;8691;50.828;4.700;2022-08-05T15:49:11;25.30;72.20
17152;DHT22;8691;50.828;4.700;2022-08-05T15:51:38;25.30;72.20
17152;DHT22;8691;50.828;4.700;2022-08-05T15:54:04;25.30;72.00
17152;DHT22;8691;50.828;4.700;2022-08-05T15:56:32;25.40;70.40
17152;DHT22;8691;50.828;4.700;2022-08-05T15:59:01;25.20;70.30
17152;DHT22;8691;50.828;4.700;2022-08-05T16:01:28;24.70;72.40
17152;DHT22;8691;50.828;4.700;2022-08-05T16:03:55;24.70;72.40
17152;DHT22;8691;50.828;4.700;2022-08-05T16:06:22;24.60;73.30
17152;DHT22;8691;50.828;4.700;2022-08-05T16:08:48;24.70;73.90
17152;DHT22;8691;50.828;4.700;2022-08-05T16:11:15;25.00;73.20
17152;DHT22;8691;50.828;4.700;2022-08-05T16:13:42;25.10;72.00
17152;DHT22;8691;50.828;4.700;2022-08-05T16:16:09;25.00;72.30
17152;DHT22;8691;50.828;4.700;2022-08-05T16:18:36;25.30;71.70